sensor_id;sensor_type;location;lat;lon;timestamp;P1;durP1;ratioP1;P2;durP2;ratioP2
75285;SDS011;63879;46.064;14.532;2023-04-25T06:00:32;2.13;;;1.38;;
75285;SDS011;63879;46.064;14.532;2023-04-25T06:02:58;2.40;;;1.45;;
75285;SDS011;63879;46.064;14.532;2023-04-25T06:05:24;5.03;;;1.13;;
75285;SDS011;63879;46.064;14.532;2023-04-25T06:07:52;3.13;;;1.92;;
75285;SDS011;63879;46.064;14.532;2023-04-25T06:10:18;2.05;;;0.93;;
75285;SDS011;63879;46.064;14.532;2023-04-25T06:12:43;5.07;;;1.27;;
75285;SDS011;63879;46.064;14.532;2023-04-25T06:15:09;3.47;;;1.42;;
75285;SDS011;63879;46.064;14.532;2023-04-25T06:17:35;2.92;;;1.88;;
75285;SDS011;63879;46.064;14.532;2023-04-25T06:20:00;1.88;;;1.35;;
75285;SDS011;63879;46.064;14.532;2023-04-25T06:22:26;6.95;;;1.67;;
75285;SDS011;63879;46.064;14.532;2023-04-25T06:24:52;3.60;;;1.77;;
75285;SDS011;63879;46.064;14.532;2023-04-25T06:27:17;5.83;;;2.50;;
75285;SDS011;63879;46.064;14.532;2023-04-25T06:29:42;2.38;;;1.83;;
75285;SDS011;63879;46.064;14.532;2023-04-25T06:32:08;3.77;;;2.03;;
75285;SDS011;63879;46.064;14.532;2023-04-25T06:34:33;3.47;;;2.20;;
75285;SDS011;63879;46.064;14.532;2023-04-25T06:36:58;3.43;;;2.17;;
75285;SDS011;63879;46.064;14.532;2023-04-25T06:39:24;4.67;;;2.20;;
75285;SDS011;63879;46.064;14.532;2023-04-25T06:41:50;3.78;;;1.85;;
75285;SDS011;63879;46.064;14.532;2023-04-25T06:44:15;4.10;;;2.13;;
75285;SDS011;63879;46.064;14.532;2023-04-25T06:46:41;3.23;;;2.67;;
75285;SDS011;63879;46.064;14.532;2023-04-25T06:49:06;4.65;;;2.42;;
75285;SDS011;63879;46.064;14.532;2023-04-25T06:51:31;4.18;;;2.40;;
75285;SDS011;63879;46.064;14.532;2023-04-25T06:53:57;5.20;;;2.80;;
75285;SDS011;63879;46.064;14.532;2023-04-25T06:56:22;4.68;;;2.75;;
75285;SDS011;63879;46.064;14.532;2023-04-25T06:58:48;3.58;;;1.88;;
75285;SDS011;63879;46.064;14.532;2023-04-25T07:01:14;3.75;;;1.55;;
75285;SDS011;63879;46.064;14.532;2023-04-25T07:03:39;5.95;;;2.53;;
75285;SDS011;63879;46.064;14.532;2023-04-25T07:06:05;6.28;;;3.30;;
75285;SDS011;63879;46.064;14.532;2023-04-25T07:08:30;5.32;;;2.33;;
75285;SDS011;63879;46.064;14.532;2023-04-25T07:10:56;3.40;;;1.67;;
75285;SDS011;63879;46.064;14.532;2023-04-25T07:13:21;3.93;;;2.40;;
75285;SDS011;63879;46.064;14.532;2023-04-25T07:15:46;5.70;;;2.58;;
75285;SDS011;63879;46.064;14.532;2023-04-25T07:18:13;4.88;;;1.55;;
75285;SDS011;63879;46.064;14.532;2023-04-25T07:20:38;4.97;;;1.42;;
75285;SDS011;63879;46.064;14.532;2023-04-25T07:23:04;5.35;;;2.33;;
75285;SDS011;63879;46.064;14.532;2023-04-25T07:25:29;5.57;;;2.08;;
75285;SDS011;63879;46.064;14.532;2023-04-25T07:27:55;4.28;;;1.35;;
75285;SDS011;63879;46.064;14.532;2023-04-25T07:30:21;3.45;;;1.40;;
75285;SDS011;63879;46.064;14.532;2023-04-25T07:32:47;3.17;;;1.30;;
75285;SDS011;63879;46.064;14.532;2023-04-25T07:35:13;2.55;;;1.30;;
75285;SDS011;63879;46.064;14.532;2023-04-25T07:37:39;2.75;;;1.30;;
75285;SDS011;63879;46.064;14.532;2023-04-25T07:40:05;3.38;;;1.73;;
75285;SDS011;63879;46.064;14.532;2023-04-25T07:42:31;2.00;;;1.33;;
75285;SDS011;63879;46.064;14.532;2023-04-25T07:44:57;3.25;;;1.90;;
75285;SDS011;63879;46.064;14.532;2023-04-25T07:47:22;1.95;;;1.25;;
75285;SDS011;63879;46.064;14.532;2023-04-25T07:49:47;3.72;;;1.60;;
75285;SDS011;63879;46.064;14.532;2023-04-25T07:52:13;1.48;;;0.90;;
75285;SDS011;63879;46.064;14.532;2023-04-25T07:54:38;2.35;;;1.27;;
75285;SDS011;63879;46.064;14.532;2023-04-25T07:57:04;2.63;;;1.47;;
75285;SDS011;63879;46.064;14.532;2023-04-25T07:59:31;3.65;;;1.60;;
75285;SDS011;63879;46.064;14.532;2023-04-25T08:01:56;2.22;;;1.23;;
75285;SDS011;63879;46.064;14.532;2023-04-25T08:04:22;1.85;;;0.88;;
75285;SDS011;63879;46.064;14.532;2023-04-25T08:06:48;2.83;;;0.80;;
75285;SDS011;63879;46.064;14.532;2023-04-25T08:09:13;3.10;;;1.40;;
75285;SDS011;63879;46.064;14.532;2023-04-25T08:11:39;4.07;;;1.17;;
75285;SDS011;63879;46.064;14.532;2023-04-25T08:14:05;2.28;;;1.10;;
75285;SDS011;63879;46.064;14.532;2023-04-25T08:16:30;3.25;;;1.02;;
75285;SDS011;63879;46.064;14.532;2023-04-25T08:18:55;1.65;;;0.80;;
75285;SDS011;63879;46.064;14.532;2023-04-25T08:21:21;1.77;;;1.07;;
75285;SDS011;63879;46.064;14.532;2023-04-25T08:23:46;2.22;;;2.10;;
75285;SDS011;63879;46.064;14.532;2023-04-25T08:26:12;2.45;;;1.58;;
75285;SDS011;63879;46.064;14.532;2023-04-25T08:28:37;1.77;;;0.75;;
75285;SDS011;63879;46.064;14.532;2023-04-25T08:31:03;1.65;;;0.57;;
75285;SDS011;63879;46.064;14.532;2023-04-25T08:33:28;2.30;;;0.73;;
75285;SDS011;63879;46.064;14.532;2023-04-25T08:35:55;1.77;;;1.67;;
75285;SDS011;63879;46.064;14.532;2023-04-25T08:38:20;2.03;;;1.05;;
75285;SDS011;63879;46.064;14.532;2023-04-25T08:40:46;1.67;;;1.02;;
75285;SDS011;63879;46.064;14.532;2023-04-25T08:43:15;2.53;;;0.75;;
75285;SDS011;63879;46.064;14.532;2023-04-25T08:45:43;1.73;;;1.58;;
75285;SDS011;63879;46.064;14.532;2023-04-25T08:48:13;1.63;;;0.70;;
75285;SDS011;63879;46.064;14.532;2023-04-25T08:50:43;2.15;;;1.25;;
75285;SDS011;63879;46.064;14.532;2023-04-25T08:53:10;1.17;;;0.65;;
75285;SDS011;63879;46.064;14.532;2023-04-25T08:55:41;2.17;;;0.75;;
75285;SDS011;63879;46.064;14.532;2023-04-25T08:58:07;1.40;;;0.95;;
75285;SDS011;63879;46.064;14.532;2023-04-25T09:00:32;6.13;;;1.13;;
75285;SDS011;63879;46.064;14.532;2023-04-25T09:02:58;1.73;;;1.10;;
75285;SDS011;63879;46.064;14.532;2023-04-25T09:05:24;2.13;;;0.98;;
75285;SDS011;63879;46.064;14.532;2023-04-25T09:07:49;1.73;;;1.40;;
75285;SDS011;63879;46.064;14.532;2023-04-25T09:10:15;1.02;;;0.50;;
75285;SDS011;63879;46.064;14.532;2023-04-25T09:12:41;1.60;;;0.65;;
75285;SDS011;63879;46.064;14.532;2023-04-25T09:15:11;2.13;;;1.05;;
75285;SDS011;63879;46.064;14.532;2023-04-25T09:17:37;1.52;;;0.57;;
75285;SDS011;63879;46.064;14.532;2023-04-25T09:20:09;1.35;;;0.50;;
75285;SDS011;63879;46.064;14.532;2023-04-25T09:22:37;2.22;;;0.77;;
75285;SDS011;63879;46.064;14.532;2023-04-25T09:25:03;1.00;;;0.52;;
75285;SDS011;63879;46.064;14.532;2023-04-25T09:27:33;1.40;;;0.82;;
75285;SDS011;63879;46.064;14.532;2023-04-25T09:29:58;1.27;;;0.45;;
75285;SDS011;63879;46.064;14.532;2023-04-25T09:32:26;1.40;;;0.70;;
75285;SDS011;63879;46.064;14.532;2023-04-25T09:34:53;1.55;;;0.93;;
75285;SDS011;63879;46.064;14.532;2023-04-25T09:37:20;1.35;;;0.75;;
75285;SDS011;63879;46.064;14.532;2023-04-25T09:39:50;0.57;;;0.57;;
75285;SDS011;63879;46.064;14.532;2023-04-25T09:42:21;1.67;;;1.13;;
75285;SDS011;63879;46.064;14.532;2023-04-25T09:44:51;1.13;;;0.60;;
75285;SDS011;63879;46.064;14.532;2023-04-25T09:47:19;2.05;;;0.85;;
75285;SDS011;63879;46.064;14.532;2023-04-25T09:49:46;0.98;;;0.60;;
75285;SDS011;63879;46.064;14.532;2023-04-25T09:52:16;0.65;;;0.38;;
75285;SDS011;63879;46.064;14.532;2023-04-25T09:54:45;1.60;;;0.45;;
75285;SDS011;63879;46.064;14.532;2023-04-25T09:57:15;1.60;;;0.70;;
75285;SDS011;63879;46.064;14.532;2023-04-25T09:59:48;2.28;;;0.75;;
75285;SDS011;63879;46.064;14.532;2023-04-25T10:02:16;1.02;;;0.47;;
75285;SDS011;63879;46.064;14.532;2023-04-25T10:04:59;0.75;;;0.52;;
75285;SDS011;63879;46.064;14.532;2023-04-25T10:07:26;1.08;;;0.60;;
75285;SDS011;63879;46.064;14.532;2023-04-25T10:09:59;1.00;;;0.43;;
75285;SDS011;63879;46.064;14.532;2023-04-25T10:12:28;1.55;;;0.30;;
75285;SDS011;63879;46.064;14.532;2023-04-25T10:14:54;1.65;;;0.65;;
75285;SDS011;63879;46.064;14.532;2023-04-25T10:17:20;0.57;;;0.43;;
75285;SDS011;63879;46.064;14.532;2023-04-25T10:19:47;0.75;;;0.47;;
75285;SDS011;63879;46.064;14.532;2023-04-25T10:22:20;0.90;;;0.50;;
75285;SDS011;63879;46.064;14.532;2023-04-25T10:24:51;0.50;;;0.50;;
75285;SDS011;63879;46.064;14.532;2023-04-25T10:27:16;0.68;;;0.68;;
75285;SDS011;63879;46.064;14.532;2023-04-25T10:29:43;0.70;;;0.38;;
75285;SDS011;63879;46.064;14.532;2023-04-25T10:32:09;0.90;;;0.80;;
75285;SDS011;63879;46.064;14.532;2023-04-25T10:34:41;1.27;;;0.43;;
75285;SDS011;63879;46.064;14.532;2023-04-25T10:37:10;1.33;;;0.35;;
75285;SDS011;63879;46.064;14.532;2023-04-25T10:39:37;2.40;;;0.63;;
75285;SDS011;63879;46.064;14.532;2023-04-25T10:42:06;0.82;;;0.65;;
75285;SDS011;63879;46.064;14.532;2023-04-25T10:44:38;1.27;;;0.68;;
75285;SDS011;63879;46.064;14.532;2023-04-25T10:47:07;1.02;;;0.50;;
75285;SDS011;63879;46.064;14.532;2023-04-25T10:49:38;1.25;;;0.75;;
75285;SDS011;63879;46.064;14.532;2023-04-25T10:52:10;1.02;;;0.60;;
75285;SDS011;63879;46.064;14.532;2023-04-25T10:54:40;1.67;;;0.85;;
75285;SDS011;63879;46.064;14.532;2023-04-25T10:57:06;0.88;;;0.40;;
75285;SDS011;63879;46.064;14.532;2023-04-25T10:59:31;0.73;;;0.47;;
75285;SDS011;63879;46.064;14.532;2023-04-25T11:01:56;1.33;;;0.20;;
75285;SDS011;63879;46.064;14.532;2023-04-25T11:04:22;0.95;;;0.60;;
75285;SDS011;63879;46.064;14.532;2023-04-25T11:09:34;0.70;;;0.40;;
75285;SDS011;63879;46.064;14.532;2023-04-25T11:12:00;1.05;;;0.43;;
75285;SDS011;63879;46.064;14.532;2023-04-25T11:14:26;0.80;;;0.30;;
75285;SDS011;63879;46.064;14.532;2023-04-25T11:16:55;0.80;;;0.65;;
75285;SDS011;63879;46.064;14.532;2023-04-25T11:19:21;1.33;;;0.95;;
75285;SDS011;63879;46.064;14.532;2023-04-25T11:21:47;1.15;;;0.40;;
75285;SDS011;63879;46.064;14.532;2023-04-25T11:24:12;1.10;;;0.63;;
75285;SDS011;63879;46.064;14.532;2023-04-25T11:26:38;1.80;;;0.45;;
75285;SDS011;63879;46.064;14.532;2023-04-25T11:29:03;0.57;;;0.50;;
75285;SDS011;63879;46.064;14.532;2023-04-25T11:31:29;0.73;;;0.32;;
75285;SDS011;63879;46.064;14.532;2023-04-25T11:33:58;0.88;;;0.40;;
75285;SDS011;63879;46.064;14.532;2023-04-25T11:36:24;1.38;;;0.40;;
75285;SDS011;63879;46.064;14.532;2023-04-25T11:38:50;0.68;;;0.32;;
75285;SDS011;63879;46.064;14.532;2023-04-25T11:41:17;0.70;;;0.30;;
75285;SDS011;63879;46.064;14.532;2023-04-25T11:43:43;1.95;;;0.22;;
75285;SDS011;63879;46.064;14.532;2023-04-25T11:46:08;0.93;;;0.40;;
75285;SDS011;63879;46.064;14.532;2023-04-25T11:48:38;0.90;;;0.28;;
75285;SDS011;63879;46.064;14.532;2023-04-25T11:51:04;1.30;;;0.43;;
75285;SDS011;63879;46.064;14.532;2023-04-25T11:53:30;1.38;;;0.43;;
75285;SDS011;63879;46.064;14.532;2023-04-25T11:55:55;0.93;;;0.32;;
75285;SDS011;63879;46.064;14.532;2023-04-25T11:58:21;1.48;;;0.50;;
75285;SDS011;63879;46.064;14.532;2023-04-25T12:00:46;0.88;;;0.43;;
75285;SDS011;63879;46.064;14.532;2023-04-25T12:03:11;0.40;;;0.35;;
75285;SDS011;63879;46.064;14.532;2023-04-25T12:05:37;0.93;;;0.50;;
75285;SDS011;63879;46.064;14.532;2023-04-25T12:08:12;0.75;;;0.50;;
75285;SDS011;63879;46.064;14.532;2023-04-25T12:10:39;0.70;;;0.32;;
75285;SDS011;63879;46.064;14.532;2023-04-25T12:13:19;0.93;;;0.40;;
75285;SDS011;63879;46.064;14.532;2023-04-25T12:15:48;0.32;;;0.22;;
75285;SDS011;63879;46.064;14.532;2023-04-25T12:18:14;1.60;;;0.50;;
75285;SDS011;63879;46.064;14.532;2023-04-25T12:20:39;1.00;;;0.40;;
75285;SDS011;63879;46.064;14.532;2023-04-25T12:23:06;0.70;;;0.45;;
75285;SDS011;63879;46.064;14.532;2023-04-25T12:25:39;0.40;;;0.25;;
75285;SDS011;63879;46.064;14.532;2023-04-25T12:30:57;0.80;;;0.43;;
75285;SDS011;63879;46.064;14.532;2023-04-25T12:33:28;1.52;;;0.43;;
75285;SDS011;63879;46.064;14.532;2023-04-25T12:38:30;0.65;;;0.50;;
75285;SDS011;63879;46.064;14.532;2023-04-25T12:40:59;0.88;;;0.30;;
75285;SDS011;63879;46.064;14.532;2023-04-25T12:43:24;1.20;;;0.25;;
75285;SDS011;63879;46.064;14.532;2023-04-25T12:45:53;0.57;;;0.28;;
75285;SDS011;63879;46.064;14.532;2023-04-25T12:48:20;0.52;;;0.20;;
75285;SDS011;63879;46.064;14.532;2023-04-25T12:50:46;1.17;;;0.65;;
75285;SDS011;63879;46.064;14.532;2023-04-25T12:53:18;1.50;;;0.60;;
75285;SDS011;63879;46.064;14.532;2023-04-25T12:55:44;0.47;;;0.32;;
75285;SDS011;63879;46.064;14.532;2023-04-25T12:58:13;0.85;;;0.52;;
75285;SDS011;63879;46.064;14.532;2023-04-25T13:00:42;0.85;;;0.38;;
75285;SDS011;63879;46.064;14.532;2023-04-25T13:03:08;0.40;;;0.22;;
75285;SDS011;63879;46.064;14.532;2023-04-25T13:05:33;0.70;;;0.47;;
75285;SDS011;63879;46.064;14.532;2023-04-25T13:07:59;1.60;;;0.32;;
75285;SDS011;63879;46.064;14.532;2023-04-25T13:10:25;0.32;;;0.22;;
75285;SDS011;63879;46.064;14.532;2023-04-25T13:12:50;0.47;;;0.47;;
75285;SDS011;63879;46.064;14.532;2023-04-25T13:15:16;0.68;;;0.40;;
75285;SDS011;63879;46.064;14.532;2023-04-25T13:17:41;0.20;;;0.20;;
75285;SDS011;63879;46.064;14.532;2023-04-25T13:20:07;0.55;;;0.20;;
75285;SDS011;63879;46.064;14.532;2023-04-25T13:22:34;1.75;;;1.65;;
75285;SDS011;63879;46.064;14.532;2023-04-25T13:25:04;0.77;;;0.30;;
75285;SDS011;63879;46.064;14.532;2023-04-25T13:27:30;0.50;;;0.20;;
75285;SDS011;63879;46.064;14.532;2023-04-25T13:29:58;0.25;;;0.25;;
75285;SDS011;63879;46.064;14.532;2023-04-25T13:32:23;0.65;;;0.25;;
75285;SDS011;63879;46.064;14.532;2023-04-25T13:34:48;0.37;;;0.23;;
75285;SDS011;63879;46.064;14.532;2023-04-25T13:37:14;1.80;;;0.43;;
75285;SDS011;63879;46.064;14.532;2023-04-25T13:39:40;0.68;;;0.22;;
75285;SDS011;63879;46.064;14.532;2023-04-25T13:42:06;0.75;;;0.50;;
75285;SDS011;63879;46.064;14.532;2023-04-25T13:44:31;0.60;;;0.30;;
75285;SDS011;63879;46.064;14.532;2023-04-25T13:46:56;1.17;;;0.60;;
75285;SDS011;63879;46.064;14.532;2023-04-25T13:49:22;1.07;;;0.13;;
75285;SDS011;63879;46.064;14.532;2023-04-25T13:51:48;0.52;;;0.22;;
75285;SDS011;63879;46.064;14.532;2023-04-25T13:54:13;0.73;;;0.40;;
75285;SDS011;63879;46.064;14.532;2023-04-25T13:56:38;0.30;;;0.20;;
75285;SDS011;63879;46.064;14.532;2023-04-25T13:59:06;0.77;;;0.22;;
75285;SDS011;63879;46.064;14.532;2023-04-25T14:01:32;0.87;;;0.50;;
75285;SDS011;63879;46.064;14.532;2023-04-25T14:03:59;0.43;;;0.25;;
75285;SDS011;63879;46.064;14.532;2023-04-25T14:06:24;0.80;;;0.40;;
75285;SDS011;63879;46.064;14.532;2023-04-25T14:08:50;0.95;;;0.70;;
75285;SDS011;63879;46.064;14.532;2023-04-25T14:11:15;1.08;;;0.30;;
75285;SDS011;63879;46.064;14.532;2023-04-25T14:13:43;0.63;;;0.30;;
75285;SDS011;63879;46.064;14.532;2023-04-25T14:16:09;0.43;;;0.22;;
75285;SDS011;63879;46.064;14.532;2023-04-25T14:18:34;0.63;;;0.23;;
75285;SDS011;63879;46.064;14.532;2023-04-25T14:20:59;0.83;;;0.30;;
75285;SDS011;63879;46.064;14.532;2023-04-25T14:23:25;0.25;;;0.20;;
75285;SDS011;63879;46.064;14.532;2023-04-25T14:25:50;0.40;;;0.20;;
75285;SDS011;63879;46.064;14.532;2023-04-25T14:28:15;1.40;;;0.22;;
75285;SDS011;63879;46.064;14.532;2023-04-25T14:30:41;0.30;;;0.22;;
75285;SDS011;63879;46.064;14.532;2023-04-25T14:33:07;0.45;;;0.20;;
75285;SDS011;63879;46.064;14.532;2023-04-25T14:35:32;1.27;;;0.40;;
75285;SDS011;63879;46.064;14.532;2023-04-25T14:37:57;0.23;;;0.10;;
75285;SDS011;63879;46.064;14.532;2023-04-25T14:40:23;1.40;;;0.22;;
75285;SDS011;63879;46.064;14.532;2023-04-25T14:42:49;0.30;;;0.20;;
75285;SDS011;63879;46.064;14.532;2023-04-25T14:45:16;1.27;;;0.40;;
75285;SDS011;63879;46.064;14.532;2023-04-25T14:47:41;0.63;;;0.22;;
75285;SDS011;63879;46.064;14.532;2023-04-25T14:50:07;0.30;;;0.30;;
75285;SDS011;63879;46.064;14.532;2023-04-25T14:52:33;0.68;;;0.13;;
75285;SDS011;63879;46.064;14.532;2023-04-25T14:54:59;0.40;;;0.22;;
75285;SDS011;63879;46.064;14.532;2023-04-25T14:57:30;0.88;;;0.40;;
75285;SDS011;63879;46.064;14.532;2023-04-25T14:59:59;0.73;;;0.50;;
75285;SDS011;63879;46.064;14.532;2023-04-25T15:02:24;0.40;;;0.20;;
75285;SDS011;63879;46.064;14.532;2023-04-25T15:04:51;0.55;;;0.20;;
75285;SDS011;63879;46.064;14.532;2023-04-25T15:07:16;0.85;;;0.47;;
75285;SDS011;63879;46.064;14.532;2023-04-25T15:09:42;0.60;;;0.28;;
75285;SDS011;63879;46.064;14.532;2023-04-25T15:12:07;0.20;;;0.13;;
75285;SDS011;63879;46.064;14.532;2023-04-25T15:14:33;1.05;;;0.60;;
75285;SDS011;63879;46.064;14.532;2023-04-25T15:16:59;0.50;;;0.10;;
75285;SDS011;63879;46.064;14.532;2023-04-25T15:19:27;0.30;;;0.13;;
75285;SDS011;63879;46.064;14.532;2023-04-25T15:21:53;0.20;;;0.20;;
75285;SDS011;63879;46.064;14.532;2023-04-25T15:24:18;0.50;;;0.22;;
75285;SDS011;63879;46.064;14.532;2023-04-25T15:26:44;0.30;;;0.20;;
75285;SDS011;63879;46.064;14.532;2023-04-25T15:29:10;0.20;;;0.17;;
75285;SDS011;63879;46.064;14.532;2023-04-25T15:31:36;0.20;;;0.20;;
75285;SDS011;63879;46.064;14.532;2023-04-25T15:34:02;0.38;;;0.30;;
75285;SDS011;63879;46.064;14.532;2023-04-25T15:36:27;0.50;;;0.20;;
75285;SDS011;63879;46.064;14.532;2023-04-25T15:38:52;0.15;;;0.10;;
75285;SDS011;63879;46.064;14.532;2023-04-25T15:41:18;0.50;;;0.50;;
75285;SDS011;63879;46.064;14.532;2023-04-25T15:43:43;0.13;;;0.10;;
75285;SDS011;63879;46.064;14.532;2023-04-25T15:46:09;0.97;;;0.23;;
75285;SDS011;63879;46.064;14.532;2023-04-25T15:48:34;1.67;;;0.33;;
75285;SDS011;63879;46.064;14.532;2023-04-25T15:51:00;0.60;;;0.30;;
75285;SDS011;63879;46.064;14.532;2023-04-25T15:53:25;0.77;;;0.28;;
75285;SDS011;63879;46.064;14.532;2023-04-25T15:55:51;0.20;;;0.20;;
75285;SDS011;63879;46.064;14.532;2023-04-25T15:58:16;1.13;;;0.63;;
75285;SDS011;63879;46.064;14.532;2023-04-25T16:00:42;0.93;;;0.30;;
75285;SDS011;63879;46.064;14.532;2023-04-25T16:03:07;0.52;;;0.32;;
75285;SDS011;63879;46.064;14.532;2023-04-25T16:05:33;0.63;;;0.40;;
75285;SDS011;63879;46.064;14.532;2023-04-25T16:07:58;1.60;;;0.40;;
75285;SDS011;63879;46.064;14.532;2023-04-25T16:10:24;0.77;;;0.77;;
75285;SDS011;63879;46.064;14.532;2023-04-25T16:12:50;0.50;;;0.32;;
75285;SDS011;63879;46.064;14.532;2023-04-25T16:15:16;1.00;;;0.47;;
75285;SDS011;63879;46.064;14.532;2023-04-25T16:17:41;0.60;;;0.40;;
75285;SDS011;63879;46.064;14.532;2023-04-25T16:20:07;0.53;;;0.23;;
75285;SDS011;63879;46.064;14.532;2023-04-25T16:22:37;1.63;;;0.55;;
75285;SDS011;63879;46.064;14.532;2023-04-25T16:25:03;1.92;;;0.50;;
75285;SDS011;63879;46.064;14.532;2023-04-25T16:27:29;1.10;;;0.55;;
75285;SDS011;63879;46.064;14.532;2023-04-25T16:29:55;0.63;;;0.50;;
75285;SDS011;63879;46.064;14.532;2023-04-25T16:32:20;0.85;;;0.32;;
75285;SDS011;63879;46.064;14.532;2023-04-25T16:34:46;0.73;;;0.40;;
75285;SDS011;63879;46.064;14.532;2023-04-25T16:37:11;0.50;;;0.37;;
75285;SDS011;63879;46.064;14.532;2023-04-25T16:39:36;0.60;;;0.10;;
75285;SDS011;63879;46.064;14.532;2023-04-25T16:42:02;0.40;;;0.30;;
75285;SDS011;63879;46.064;14.532;2023-04-25T16:44:27;0.25;;;0.25;;
75285;SDS011;63879;46.064;14.532;2023-04-25T16:46:53;0.50;;;0.40;;
75285;SDS011;63879;46.064;14.532;2023-04-25T16:49:18;0.17;;;0.13;;
75285;SDS011;63879;46.064;14.532;2023-04-25T16:51:44;0.40;;;0.33;;
75285;SDS011;63879;46.064;14.532;2023-04-25T16:54:10;1.23;;;0.65;;
75285;SDS011;63879;46.064;14.532;2023-04-25T16:56:36;1.20;;;0.20;;
75285;SDS011;63879;46.064;14.532;2023-04-25T16:59:01;0.80;;;0.47;;
75285;SDS011;63879;46.064;14.532;2023-04-25T17:01:26;0.50;;;0.17;;
75285;SDS011;63879;46.064;14.532;2023-04-25T17:03:52;0.70;;;0.47;;
75285;SDS011;63879;46.064;14.532;2023-04-25T17:06:17;0.60;;;0.20;;
75285;SDS011;63879;46.064;14.532;2023-04-25T17:08:42;0.45;;;0.25;;
75285;SDS011;63879;46.064;14.532;2023-04-25T17:11:08;1.00;;;0.63;;
75285;SDS011;63879;46.064;14.532;2023-04-25T17:13:35;0.25;;;0.13;;
75285;SDS011;63879;46.064;14.532;2023-04-25T17:16:00;0.25;;;0.20;;
75285;SDS011;63879;46.064;14.532;2023-04-25T17:18:26;0.30;;;0.15;;
75285;SDS011;63879;46.064;14.532;2023-04-25T17:20:52;0.80;;;0.52;;
75285;SDS011;63879;46.064;14.532;2023-04-25T17:23:18;0.60;;;0.22;;
75285;SDS011;63879;46.064;14.532;2023-04-25T17:25:44;0.60;;;0.17;;
75285;SDS011;63879;46.064;14.532;2023-04-25T17:28:09;0.88;;;0.50;;
75285;SDS011;63879;46.064;14.532;2023-04-25T17:30:35;0.65;;;0.50;;
75285;SDS011;63879;46.064;14.532;2023-04-25T17:33:00;1.17;;;0.30;;
75285;SDS011;63879;46.064;14.532;2023-04-25T17:35:27;0.57;;;0.25;;
75285;SDS011;63879;46.064;14.532;2023-04-25T17:37:53;0.93;;;0.50;;
75285;SDS011;63879;46.064;14.532;2023-04-25T17:40:18;0.97;;;0.47;;
75285;SDS011;63879;46.064;14.532;2023-04-25T17:42:44;0.68;;;0.28;;
75285;SDS011;63879;46.064;14.532;2023-04-25T17:45:10;0.82;;;0.38;;
75285;SDS011;63879;46.064;14.532;2023-04-25T17:47:36;1.48;;;0.40;;
75285;SDS011;63879;46.064;14.532;2023-04-25T17:50:02;0.55;;;0.20;;
75285;SDS011;63879;46.064;14.532;2023-04-25T17:52:29;0.93;;;0.30;;
75285;SDS011;63879;46.064;14.532;2023-04-25T17:54:54;1.00;;;0.35;;
75285;SDS011;63879;46.064;14.532;2023-04-25T17:57:20;0.40;;;0.40;;
75285;SDS011;63879;46.064;14.532;2023-04-25T17:59:49;1.15;;;0.43;;
75285;SDS011;63879;46.064;14.532;2023-04-25T18:02:14;0.50;;;0.50;;
75285;SDS011;63879;46.064;14.532;2023-04-25T18:04:40;0.28;;;0.22;;
75285;SDS011;63879;46.064;14.532;2023-04-25T18:07:06;1.05;;;0.45;;
75285;SDS011;63879;46.064;14.532;2023-04-25T18:09:32;2.10;;;0.50;;
75285;SDS011;63879;46.064;14.532;2023-04-25T18:11:58;0.65;;;0.25;;
75285;SDS011;63879;46.064;14.532;2023-04-25T18:14:33;1.27;;;0.43;;
75285;SDS011;63879;46.064;14.532;2023-04-25T18:17:00;0.90;;;0.43;;
75285;SDS011;63879;46.064;14.532;2023-04-25T18:19:25;1.20;;;0.93;;
75285;SDS011;63879;46.064;14.532;2023-04-25T18:21:54;0.93;;;0.53;;
75285;SDS011;63879;46.064;14.532;2023-04-25T18:24:20;0.85;;;0.60;;
75285;SDS011;63879;46.064;14.532;2023-04-25T18:26:46;2.15;;;0.40;;
75285;SDS011;63879;46.064;14.532;2023-04-25T18:29:13;1.02;;;0.50;;
75285;SDS011;63879;46.064;14.532;2023-04-25T18:31:39;0.88;;;0.30;;
75285;SDS011;63879;46.064;14.532;2023-04-25T18:34:05;1.58;;;0.60;;
75285;SDS011;63879;46.064;14.532;2023-04-25T18:36:31;0.80;;;0.45;;
75285;SDS011;63879;46.064;14.532;2023-04-25T18:38:56;1.33;;;0.50;;
75285;SDS011;63879;46.064;14.532;2023-04-25T18:41:23;0.98;;;0.50;;
75285;SDS011;63879;46.064;14.532;2023-04-25T18:43:49;0.88;;;0.50;;
75285;SDS011;63879;46.064;14.532;2023-04-25T18:46:15;5.85;;;1.42;;
75285;SDS011;63879;46.064;14.532;2023-04-25T18:48:41;1.88;;;1.10;;
75285;SDS011;63879;46.064;14.532;2023-04-25T18:51:07;1.65;;;1.27;;
75285;SDS011;63879;46.064;14.532;2023-04-25T18:53:32;1.85;;;1.02;;
75285;SDS011;63879;46.064;14.532;2023-04-25T18:55:58;1.35;;;1.08;;
75285;SDS011;63879;46.064;14.532;2023-04-25T18:58:23;4.75;;;0.77;;
75285;SDS011;63879;46.064;14.532;2023-04-25T19:00:49;1.88;;;0.95;;
75285;SDS011;63879;46.064;14.532;2023-04-25T19:03:14;0.93;;;0.47;;
75285;SDS011;63879;46.064;14.532;2023-04-25T19:05:40;0.85;;;0.35;;
75285;SDS011;63879;46.064;14.532;2023-04-25T19:08:05;0.97;;;0.50;;
75285;SDS011;63879;46.064;14.532;2023-04-25T19:10:31;2.40;;;0.93;;
75285;SDS011;63879;46.064;14.532;2023-04-25T19:12:56;1.80;;;0.93;;
75285;SDS011;63879;46.064;14.532;2023-04-25T19:15:21;1.30;;;0.82;;
75285;SDS011;63879;46.064;14.532;2023-04-25T19:17:47;1.58;;;0.93;;
75285;SDS011;63879;46.064;14.532;2023-04-25T19:20:13;1.25;;;0.77;;
75285;SDS011;63879;46.064;14.532;2023-04-25T19:22:38;1.60;;;1.00;;
75285;SDS011;63879;46.064;14.532;2023-04-25T19:25:03;2.03;;;0.80;;
75285;SDS011;63879;46.064;14.532;2023-04-25T19:27:29;3.42;;;1.60;;
75285;SDS011;63879;46.064;14.532;2023-04-25T19:29:55;3.15;;;0.77;;
75285;SDS011;63879;46.064;14.532;2023-04-25T19:32:31;2.25;;;1.02;;
75285;SDS011;63879;46.064;14.532;2023-04-25T19:34:57;3.58;;;1.73;;
75285;SDS011;63879;46.064;14.532;2023-04-25T19:37:25;3.40;;;1.17;;
75285;SDS011;63879;46.064;14.532;2023-04-25T19:39:51;2.28;;;0.93;;
75285;SDS011;63879;46.064;14.532;2023-04-25T19:42:16;2.60;;;1.10;;
75285;SDS011;63879;46.064;14.532;2023-04-25T19:44:43;1.85;;;1.00;;
75285;SDS011;63879;46.064;14.532;2023-04-25T19:47:09;3.10;;;1.20;;
75285;SDS011;63879;46.064;14.532;2023-04-25T19:49:35;3.22;;;1.55;;
75285;SDS011;63879;46.064;14.532;2023-04-25T19:52:01;3.47;;;1.92;;
75285;SDS011;63879;46.064;14.532;2023-04-25T19:54:27;2.95;;;1.50;;
75285;SDS011;63879;46.064;14.532;2023-04-25T19:56:52;2.90;;;1.43;;
75285;SDS011;63879;46.064;14.532;2023-04-25T19:59:18;3.85;;;1.83;;
75285;SDS011;63879;46.064;14.532;2023-04-25T20:01:44;5.32;;;2.25;;
75285;SDS011;63879;46.064;14.532;2023-04-25T20:04:09;3.45;;;1.45;;
75285;SDS011;63879;46.064;14.532;2023-04-25T20:06:36;3.58;;;1.52;;
75285;SDS011;63879;46.064;14.532;2023-04-25T20:09:01;3.30;;;1.20;;
75285;SDS011;63879;46.064;14.532;2023-04-25T20:11:27;2.50;;;1.13;;
75285;SDS011;63879;46.064;14.532;2023-04-25T20:13:53;2.53;;;0.82;;
75285;SDS011;63879;46.064;14.532;2023-04-25T20:16:18;2.55;;;1.20;;
75285;SDS011;63879;46.064;14.532;2023-04-25T20:18:46;4.20;;;1.52;;
75285;SDS011;63879;46.064;14.532;2023-04-25T20:21:12;4.95;;;2.00;;
75285;SDS011;63879;46.064;14.532;2023-04-25T20:23:38;3.33;;;1.00;;
75285;SDS011;63879;46.064;14.532;2023-04-25T20:26:04;3.30;;;1.63;;
75285;SDS011;63879;46.064;14.532;2023-04-25T20:28:30;3.60;;;1.85;;
75285;SDS011;63879;46.064;14.532;2023-04-25T20:30:56;4.03;;;1.90;;
75285;SDS011;63879;46.064;14.532;2023-04-25T20:33:21;4.53;;;1.77;;
75285;SDS011;63879;46.064;14.532;2023-04-25T20:35:47;3.42;;;2.63;;